createdAt,value
2023-04-10T00:02:10.846Z,11.07
2023-04-10T00:04:43.105Z,11.08
2023-04-10T00:07:54.913Z,11.08
2023-04-10T00:16:13.253Z,11.02
2023-04-10T00:17:13.906Z,11.06
2023-04-10T00:17:55.602Z,10.97
2023-04-10T00:20:32.917Z,10.95
2023-04-10T00:23:19.055Z,10.95
2023-04-10T00:26:04.333Z,10.96
2023-04-10T00:28:51.750Z,10.97
2023-04-10T00:31:54.312Z,10.97
2023-04-10T00:34:26.247Z,10.95
2023-04-10T00:37:14.148Z,10.91
2023-04-10T00:40:04.019Z,10.91
2023-04-10T00:42:41.974Z,10.88
2023-04-10T00:45:12.645Z,10.87
2023-04-10T00:47:46.917Z,10.85
2023-04-10T00:50:19.559Z,10.84
2023-04-10T00:52:51.603Z,10.83
2023-04-10T00:55:21.195Z,10.82
2023-04-10T00:57:50.828Z,10.82
2023-04-10T01:00:20.543Z,10.82
2023-04-10T01:03:11.354Z,10.80
2023-04-10T01:06:13.279Z,10.83
2023-04-10T01:18:57.589Z,10.80
2023-04-10T01:19:55.600Z,10.70
2023-04-10T01:25:28.774Z,10.42
2023-04-10T01:28:20.854Z,10.34
2023-04-10T01:30:54.006Z,10.28
2023-04-10T01:33:30.781Z,10.24
2023-04-10T01:36:03.229Z,10.23
2023-04-10T01:38:33.311Z,10.22
2023-04-10T01:41:04.133Z,10.19
2023-04-10T01:43:34.330Z,10.14
2023-04-10T01:46:04.897Z,10.11
2023-04-10T01:48:34.523Z,10.09
2023-04-10T01:51:07.274Z,10.10
2023-04-10T01:53:37.571Z,10.12
2023-04-10T01:56:10.566Z,10.14
2023-04-10T01:58:39.972Z,10.15
2023-04-10T02:01:16.407Z,10.15
2023-04-10T02:03:52.114Z,10.14
2023-04-10T02:06:34.902Z,10.15
2023-04-10T02:09:12.631Z,10.16
2023-04-10T02:11:47.581Z,10.19
2023-04-10T02:14:21.736Z,10.20
2023-04-10T02:16:54.111Z,10.17
2023-04-10T02:19:25.208Z,10.16
2023-04-10T02:21:55.081Z,10.08
2023-04-10T02:24:24.707Z,10.02
2023-04-10T02:26:54.419Z,9.95
2023-04-10T02:29:23.689Z,9.95
2023-04-10T02:31:52.977Z,9.95
2023-04-10T02:34:36.761Z,9.97
2023-04-10T02:37:06.145Z,9.95
2023-04-10T02:39:36.592Z,9.93
2023-04-10T02:42:09.935Z,9.92
2023-04-10T02:44:39.403Z,9.89
2023-04-10T02:47:23.418Z,9.88
2023-04-10T02:49:52.744Z,9.85
2023-04-10T02:52:21.908Z,9.82
2023-04-10T02:54:51.470Z,9.82
2023-04-10T02:57:35.710Z,9.79
2023-04-10T03:00:07.125Z,9.78
2023-04-10T03:02:46.237Z,9.80
2023-04-10T03:05:19.009Z,9.80
2023-04-10T03:07:58.756Z,9.75
2023-04-10T03:10:28.828Z,9.70
2023-04-10T03:13:04.347Z,9.64
2023-04-10T03:15:34.452Z,9.58
2023-04-10T03:18:09.125Z,9.53
2023-04-10T03:20:40.532Z,9.51
2023-04-10T03:23:10.467Z,9.48
2023-04-10T03:25:42.084Z,9.47
2023-04-10T03:28:11.482Z,9.42
2023-04-10T03:30:43.234Z,9.42
2023-04-10T03:33:12.641Z,9.41
2023-04-10T03:35:41.820Z,9.38
2023-04-10T03:38:15.165Z,9.36
2023-04-10T03:40:44.553Z,9.33
2023-04-10T03:43:25.729Z,9.32
2023-04-10T03:46:15.873Z,9.31
2023-04-10T03:48:45.223Z,9.29
2023-04-10T03:51:14.498Z,9.28
2023-04-10T03:53:43.718Z,9.29
2023-04-10T03:56:21.995Z,9.28
2023-04-10T03:59:04.372Z,9.32
2023-04-10T04:01:40.750Z,9.34
2023-04-10T04:04:17.236Z,9.35
2023-04-10T04:06:49.008Z,9.38
2023-04-10T04:09:18.261Z,9.40
2023-04-10T04:11:50.512Z,9.56
2023-04-10T04:14:38.318Z,9.83
2023-04-10T04:17:09.649Z,10.10
2023-04-10T04:19:40.043Z,10.34
2023-04-10T04:22:26.617Z,10.59
2023-04-10T04:24:56.289Z,10.91
2023-04-10T04:27:29.895Z,11.06
2023-04-10T04:30:03.881Z,11.13
2023-04-10T04:32:33.352Z,11.22
2023-04-10T04:35:02.809Z,11.38
2023-04-10T04:37:37.996Z,11.51
2023-04-10T04:40:10.133Z,11.45
2023-04-10T04:42:40.459Z,11.36
2023-04-10T04:45:12.256Z,11.24
2023-04-10T04:47:42.010Z,11.14
2023-04-10T04:50:12.220Z,11.05
2023-04-10T04:52:42.080Z,10.94
2023-04-10T04:55:12.360Z,10.86
2023-04-10T04:58:10.235Z,10.80
2023-04-10T05:00:40.552Z,10.75
2023-04-10T05:03:10.798Z,10.69
2023-04-10T05:05:57.720Z,10.62
2023-04-10T05:08:27.109Z,10.59
2023-04-10T05:10:56.456Z,10.57
2023-04-10T05:13:28.240Z,10.59
2023-04-10T05:16:00.721Z,10.62
2023-04-10T05:18:30.184Z,10.63
2023-04-10T05:21:21.074Z,10.66
2023-04-10T05:23:50.567Z,10.71
2023-04-10T05:29:22.364Z,10.73
2023-04-10T05:31:53.229Z,10.75
2023-04-10T05:34:23.078Z,10.80
2023-04-10T05:36:52.362Z,10.88
2023-04-10T05:39:21.563Z,10.95
2023-04-10T05:41:51.069Z,11.02
2023-04-10T05:44:20.371Z,11.09
2023-04-10T05:46:49.590Z,11.14
2023-04-10T05:49:18.963Z,11.20
2023-04-10T05:51:49.843Z,11.27
2023-04-10T05:54:26.132Z,11.33
2023-04-10T05:56:56.934Z,11.36
2023-04-10T05:59:26.362Z,11.37
2023-04-10T06:01:56.504Z,11.40
2023-04-10T06:04:26.291Z,11.42
2023-04-10T06:06:56.693Z,11.47
2023-04-10T06:12:21.620Z,11.53
2023-04-10T06:13:39.454Z,11.61
2023-04-10T06:16:09.982Z,11.66
2023-04-10T06:18:39.264Z,11.72
2023-04-10T06:21:09.541Z,11.80
2023-04-10T06:23:38.882Z,11.86
2023-04-10T06:26:08.665Z,11.89
2023-04-10T06:28:38.397Z,11.92
2023-04-10T06:31:11.166Z,11.95
2023-04-10T06:33:43.571Z,11.96
2023-04-10T06:36:36.189Z,12.01
2023-04-10T06:39:09.055Z,12.09
2023-04-10T06:41:38.353Z,12.13
2023-04-10T06:44:07.908Z,12.17
2023-04-10T06:46:37.219Z,12.21
2023-04-10T06:49:10.888Z,12.25
2023-04-10T06:51:48.154Z,12.30
2023-04-10T06:54:17.633Z,12.37
2023-04-10T06:56:46.960Z,12.44
2023-04-10T06:59:31.574Z,12.52
2023-04-10T07:02:01.247Z,12.60
2023-04-10T07:04:30.843Z,12.65
2023-04-10T07:07:00.218Z,12.70
2023-04-10T07:09:30.546Z,12.76
2023-04-10T07:11:59.886Z,12.82
2023-04-10T07:17:48.897Z,12.89
2023-04-10T07:20:18.717Z,12.94
2023-04-10T07:22:48.203Z,13.02
2023-04-10T07:25:18.113Z,13.11
2023-04-10T07:27:47.630Z,13.19
2023-04-10T07:30:18.915Z,13.25
2023-04-10T07:32:50.445Z,13.34
2023-04-10T07:35:26.540Z,13.43
2023-04-10T07:37:57.249Z,13.51
2023-04-10T07:40:26.558Z,13.58
2023-04-10T07:42:55.747Z,13.62
2023-04-10T07:45:25.902Z,13.67
2023-04-10T07:47:55.643Z,13.72
2023-04-10T07:54:07.081Z,13.90
2023-04-10T07:59:54.539Z,14.12
2023-04-10T08:02:31.920Z,14.22
2023-04-10T08:03:33.232Z,14.00
2023-04-10T08:03:49.753Z,13.78
2023-04-10T08:05:10.730Z,14.32
2023-04-10T08:07:40.294Z,14.38
2023-04-10T08:10:12.035Z,14.39
2023-04-10T08:13:17.374Z,14.43
2023-04-10T08:15:55.366Z,14.49
2023-04-10T08:18:25.139Z,14.53
2023-04-10T08:20:54.402Z,14.58
2023-04-10T08:23:35.554Z,14.65
2023-04-10T08:26:20.142Z,14.67
2023-04-10T08:28:55.812Z,14.73
2023-04-10T08:31:41.801Z,14.76
2023-04-10T08:34:11.137Z,14.82
2023-04-10T08:36:42.601Z,14.89
2023-04-10T08:39:12.715Z,14.92
2023-04-10T08:41:51.029Z,14.93
2023-04-10T08:44:20.450Z,14.98
2023-04-10T08:46:50.600Z,15.06
2023-04-10T08:49:28.185Z,15.09
2023-04-10T08:51:59.141Z,15.13
2023-04-10T08:54:34.746Z,15.15
2023-04-10T08:57:21.755Z,15.17
2023-04-10T09:00:23.335Z,15.18
2023-04-10T09:03:45.002Z,15.19
2023-04-10T09:06:51.857Z,15.25
2023-04-10T09:09:11.830Z,15.37
2023-04-10T09:12:01.511Z,15.45
2023-04-10T09:16:21.307Z,15.46
2023-04-10T09:17:38.438Z,15.47
2023-04-10T09:20:31.604Z,15.49
2023-04-10T09:23:22.400Z,15.56
2023-04-10T09:25:55.969Z,15.63
2023-04-10T09:28:25.908Z,15.70
2023-04-10T09:30:55.791Z,15.77
2023-04-10T09:33:27.507Z,15.81
2023-04-10T09:36:00.377Z,15.85
2023-04-10T09:39:07.811Z,15.89
2023-04-10T09:42:04.290Z,15.96
2023-04-10T09:44:39.887Z,16.06
2023-04-10T09:47:21.046Z,16.14
2023-04-10T09:49:52.367Z,16.20
2023-04-10T09:52:24.272Z,16.25
2023-04-10T09:54:54.336Z,16.30
2023-04-10T09:57:28.400Z,16.26
2023-04-10T10:00:00.051Z,16.25
2023-04-10T10:02:33.750Z,16.28
2023-04-10T10:05:04.736Z,16.32
2023-04-10T10:07:42.985Z,16.35
2023-04-10T10:10:13.694Z,16.43
2023-04-10T10:12:52.036Z,16.51
2023-04-10T10:15:29.113Z,16.58
2023-04-10T10:18:11.103Z,16.67
2023-04-10T10:20:46.674Z,16.77
2023-04-10T10:23:17.803Z,16.80
2023-04-10T10:25:51.619Z,16.83
2023-04-10T10:28:22.625Z,16.92
2023-04-10T10:30:52.968Z,17.00
2023-04-10T10:33:23.082Z,17.10
2023-04-10T10:35:52.996Z,17.19
2023-04-10T10:38:22.928Z,17.24
2023-04-10T10:41:02.259Z,17.32
2023-04-10T10:43:42.680Z,17.41
2023-04-10T10:46:16.979Z,17.43
2023-04-10T10:48:57.937Z,17.42
2023-04-10T10:51:44.138Z,17.37
2023-04-10T10:54:28.908Z,17.37
2023-04-10T10:56:58.507Z,17.42
2023-04-10T10:59:57.635Z,17.48
2023-04-10T11:02:27.289Z,17.50
2023-04-10T11:04:56.627Z,17.54
2023-04-10T11:08:03.186Z,17.60
2023-04-10T11:11:01.811Z,17.68
2023-04-10T11:13:31.699Z,17.66
2023-04-10T11:16:16.494Z,17.62
2023-04-10T11:19:13.118Z,17.59
2023-04-10T11:22:08.764Z,17.63
2023-04-10T11:24:56.965Z,17.66
2023-04-10T11:27:46.205Z,17.75
2023-04-10T11:30:35.912Z,17.77
2023-04-10T11:33:06.296Z,17.79
2023-04-10T11:35:35.706Z,17.83
2023-04-10T11:38:17.410Z,17.95
2023-04-10T11:40:57.708Z,18.02
2023-04-10T11:43:27.285Z,18.11
2023-04-10T11:46:07.555Z,18.23
2023-04-10T11:48:38.109Z,18.39
2023-04-10T11:51:15.176Z,18.51
2023-04-10T11:53:44.787Z,18.67
2023-04-10T11:56:19.957Z,18.83
2023-04-10T11:58:53.489Z,18.94
2023-04-10T12:01:23.800Z,18.85
2023-04-10T12:03:53.452Z,18.80
2023-04-10T12:06:23.191Z,18.82
2023-04-10T12:08:53.212Z,18.88
2023-04-10T12:11:24.718Z,18.93
2023-04-10T12:13:55.112Z,18.97
2023-04-10T12:16:26.081Z,18.99
2023-04-10T12:18:55.948Z,19.02
2023-04-10T12:21:26.921Z,19.09
2023-04-10T12:23:56.312Z,19.07
2023-04-10T12:26:25.484Z,19.04
2023-04-10T12:28:56.884Z,19.08
2023-04-10T12:31:30.764Z,19.21
2023-04-10T12:34:01.756Z,19.35
2023-04-10T12:36:33.741Z,19.46
2023-04-10T12:39:04.315Z,19.55
2023-04-10T12:41:59.019Z,19.58
2023-04-10T12:44:34.188Z,19.54
2023-04-10T12:47:15.504Z,19.47
2023-04-10T12:50:04.035Z,19.37
2023-04-10T12:52:33.532Z,19.25
2023-04-10T12:55:14.187Z,19.18
2023-04-10T12:57:45.365Z,19.06
2023-04-10T13:00:17.467Z,18.94
2023-04-10T13:02:48.508Z,18.88
2023-04-10T13:05:37.149Z,18.81
2023-04-10T13:08:06.537Z,18.83
2023-04-10T13:10:44.406Z,18.92
2023-04-10T13:13:29.287Z,19.11
2023-04-10T13:15:58.890Z,19.38
2023-04-10T13:18:28.290Z,19.61
2023-04-10T13:20:57.736Z,19.65
2023-04-10T13:23:37.173Z,19.74
2023-04-10T13:26:06.996Z,19.67
2023-04-10T13:28:36.184Z,19.56
2023-04-10T13:31:05.970Z,19.45
2023-04-10T13:33:35.569Z,19.36
2023-04-10T13:36:06.006Z,19.24
2023-04-10T13:38:49.337Z,19.17
2023-04-10T13:41:19.939Z,19.13
2023-04-10T13:43:49.807Z,19.11
2023-04-10T13:46:19.606Z,19.13
2023-04-10T13:48:48.904Z,19.13
2023-04-10T13:51:19.740Z,19.10
2023-04-10T13:53:49.133Z,19.09
2023-04-10T13:56:18.601Z,19.13
2023-04-10T13:58:48.782Z,19.08
2023-04-10T14:01:29.247Z,19.10
2023-04-10T14:03:59.288Z,19.20
2023-04-10T14:06:38.071Z,19.30
2023-04-10T14:09:07.446Z,19.34
2023-04-10T14:11:36.775Z,19.31
2023-04-10T14:14:26.023Z,19.34
2023-04-10T14:17:06.998Z,19.44
2023-04-10T14:19:51.939Z,19.50
2023-04-10T14:22:23.171Z,19.57
2023-04-10T14:25:01.725Z,19.67
2023-04-10T14:27:41.520Z,19.79
2023-04-10T14:30:11.542Z,19.81
2023-04-10T14:32:58.398Z,19.76
2023-04-10T14:35:27.583Z,19.66
2023-04-10T14:37:56.674Z,19.55
2023-04-10T14:40:27.390Z,19.49
2023-04-10T14:42:56.502Z,19.43
2023-04-10T14:45:27.521Z,19.32
2023-04-10T14:47:57.102Z,19.27
2023-04-10T14:50:26.716Z,19.26
2023-04-10T14:52:59.186Z,19.23
2023-04-10T14:55:29.981Z,19.15
2023-04-10T14:57:59.259Z,19.01
2023-04-10T15:00:29.326Z,18.90
2023-04-10T15:02:58.926Z,18.83
2023-04-10T15:05:28.701Z,18.80
2023-04-10T15:07:58.031Z,18.73
2023-04-10T15:10:30.133Z,18.66
2023-04-10T15:12:59.456Z,18.61
2023-04-10T15:15:28.774Z,18.57
2023-04-10T15:17:58.255Z,18.53
2023-04-10T15:20:28.071Z,18.47
2023-04-10T15:22:58.402Z,18.44
2023-04-10T15:25:28.173Z,18.35
2023-04-10T15:27:59.317Z,18.22
2023-04-10T15:30:30.461Z,18.13
2023-04-10T15:33:13.166Z,18.08
2023-04-10T15:35:42.652Z,18.04
2023-04-10T15:38:12.852Z,18.00
2023-04-10T15:40:42.097Z,17.95
2023-04-10T15:43:11.214Z,17.89
2023-04-10T15:45:41.016Z,17.82
2023-04-10T15:48:10.644Z,17.80
2023-04-10T15:50:40.230Z,17.79
2023-04-10T15:53:11.003Z,17.80
2023-04-10T15:55:41.659Z,17.79
2023-04-10T15:58:10.823Z,17.71
2023-04-10T16:00:39.824Z,17.66
2023-04-10T16:03:09.319Z,17.63
2023-04-10T16:05:38.650Z,17.55
2023-04-10T16:08:07.729Z,17.47
2023-04-10T16:10:36.993Z,17.40
2023-04-10T16:13:06.222Z,17.35
2023-04-10T16:15:36.786Z,17.30
2023-04-10T16:18:07.213Z,17.25
2023-04-10T16:20:36.529Z,17.17
2023-04-10T16:23:05.846Z,17.12
2023-04-10T16:25:35.128Z,17.02
2023-04-10T16:28:07.241Z,16.96
2023-04-10T16:30:36.417Z,16.91
2023-04-10T16:33:06.208Z,16.87
2023-04-10T16:35:35.468Z,16.83
2023-04-10T16:38:04.752Z,16.79
2023-04-10T16:40:41.309Z,16.72
2023-04-10T16:43:11.530Z,16.65
2023-04-10T16:45:42.195Z,16.59
2023-04-10T16:48:11.538Z,16.52
2023-04-10T16:50:40.780Z,16.48
2023-04-10T16:53:09.872Z,16.41
2023-04-10T16:56:06.100Z,16.33
2023-04-10T16:59:04.385Z,16.26
2023-04-10T17:01:38.914Z,16.20
2023-04-10T17:04:08.729Z,16.16
2023-04-10T17:06:38.056Z,16.12
2023-04-10T17:09:07.099Z,16.06
2023-04-10T17:11:36.476Z,16.01
2023-04-10T17:14:06.774Z,15.97
2023-04-10T17:16:36.145Z,15.93
2023-04-10T17:19:05.573Z,15.92
2023-04-10T17:21:37.400Z,15.88
2023-04-10T17:24:07.429Z,15.86
2023-04-10T17:26:42.754Z,15.83
2023-04-10T17:29:12.471Z,15.79
2023-04-10T17:31:42.104Z,15.75
2023-04-10T17:34:14.135Z,15.72
2023-04-10T17:36:43.442Z,15.70
2023-04-10T17:39:12.661Z,15.66
2023-04-10T17:41:42.047Z,15.62
2023-04-10T17:44:11.530Z,15.58
2023-04-10T17:46:40.635Z,15.55
2023-04-10T17:49:14.704Z,15.52
2023-04-10T17:51:46.187Z,15.48
2023-04-10T17:54:15.605Z,15.48
2023-04-10T17:56:45.015Z,15.45
2023-04-10T17:59:14.261Z,15.42
2023-04-10T18:01:43.669Z,15.40
2023-04-10T18:04:13.002Z,15.39
2023-04-10T18:06:42.306Z,15.35
2023-04-10T18:09:11.738Z,15.26
2023-04-10T18:11:41.066Z,15.21
2023-04-10T18:14:10.526Z,15.19
2023-04-10T18:16:39.933Z,15.14
2023-04-10T18:19:09.501Z,15.10
2023-04-10T18:21:41.302Z,15.08
2023-04-10T18:24:10.807Z,15.06
2023-04-10T18:26:40.677Z,15.03
2023-04-10T18:29:15.943Z,14.99
2023-04-10T18:31:45.621Z,14.96
2023-04-10T18:34:14.837Z,14.93
2023-04-10T18:36:45.221Z,14.91
2023-04-10T18:39:14.608Z,14.87
2023-04-10T18:41:43.788Z,14.84
2023-04-10T18:44:13.047Z,14.82
2023-04-10T18:46:46.160Z,14.82
2023-04-10T18:49:18.241Z,14.79
2023-04-10T18:51:50.509Z,14.78
2023-04-10T18:54:19.553Z,14.79
2023-04-10T18:56:49.009Z,14.78
2023-04-10T18:59:18.224Z,14.76
2023-04-10T19:01:48.009Z,14.74
2023-04-10T19:04:24.221Z,14.71
2023-04-10T19:06:53.603Z,14.66
2023-04-10T19:09:22.747Z,14.64
2023-04-10T19:11:53.505Z,14.59
2023-04-10T19:14:22.803Z,14.58
2023-04-10T19:16:52.063Z,14.57
2023-04-10T19:19:21.410Z,14.57
2023-04-10T19:21:52.968Z,14.53
2023-04-10T19:24:22.565Z,14.48
2023-04-10T19:26:54.096Z,14.44
2023-04-10T19:29:25.348Z,14.42
2023-04-10T19:31:56.455Z,14.39
2023-04-10T19:34:25.879Z,14.38
2023-04-10T19:36:55.369Z,14.37
2023-04-10T19:39:24.554Z,14.37
2023-04-10T19:41:55.759Z,14.35
2023-04-10T19:44:25.417Z,14.33
2023-04-10T19:46:54.629Z,14.29
2023-04-10T19:49:24.081Z,14.27
2023-04-10T19:51:53.707Z,14.26
2023-04-10T19:54:23.183Z,14.22
2023-04-10T19:56:52.425Z,14.21
2023-04-10T19:59:22.342Z,14.18
2023-04-10T20:01:51.627Z,14.16
2023-04-10T20:04:20.863Z,14.14
2023-04-10T20:06:50.394Z,14.15
2023-04-10T20:09:19.535Z,14.13
2023-04-10T20:11:52.023Z,14.11
2023-04-10T20:14:21.334Z,14.12
2023-04-10T20:16:50.920Z,14.13
2023-04-10T20:19:23.396Z,14.15
2023-04-10T20:22:08.884Z,14.14
2023-04-10T20:24:38.825Z,14.14
2023-04-10T20:27:11.875Z,14.12
2023-04-10T20:29:41.634Z,14.12
2023-04-10T20:32:11.116Z,14.14
2023-04-10T20:34:45.743Z,14.15
2023-04-10T20:37:21.224Z,14.14
2023-04-10T20:39:51.549Z,14.12
2023-04-10T20:42:20.796Z,14.08
2023-04-10T20:44:55.310Z,14.07
2023-04-10T20:47:24.950Z,14.05
2023-04-10T20:49:54.317Z,14.04
2023-04-10T20:52:24.062Z,14.07
2023-04-10T20:54:53.435Z,14.07
2023-04-10T20:57:23.171Z,14.06
2023-04-10T20:59:56.775Z,14.04
2023-04-10T21:02:26.072Z,13.99
2023-04-10T21:04:55.538Z,14.00
2023-04-10T21:07:24.450Z,13.99
2023-04-10T21:09:53.794Z,13.97
2023-04-10T21:12:23.930Z,13.97
2023-04-10T21:14:53.165Z,13.95
2023-04-10T21:17:23.324Z,13.95
2023-04-10T21:19:53.819Z,13.96
2023-04-10T21:22:22.984Z,13.93
2023-04-10T21:24:52.346Z,13.89
2023-04-10T21:27:21.600Z,13.88
2023-04-10T21:29:50.551Z,13.89
2023-04-10T21:32:23.242Z,13.92
2023-04-10T21:34:52.414Z,13.93
2023-04-10T21:37:21.677Z,13.92
2023-04-10T21:39:52.020Z,13.91
2023-04-10T21:42:21.151Z,13.91
2023-04-10T21:44:50.210Z,13.89
2023-04-10T21:47:19.528Z,13.86
2023-04-10T21:49:48.533Z,13.84
2023-04-10T21:52:17.652Z,13.80
2023-04-10T21:54:47.005Z,13.77
2023-04-10T21:57:16.144Z,13.80
2023-04-10T21:59:45.475Z,13.82
2023-04-10T22:02:15.179Z,13.85
2023-04-10T22:04:54.674Z,13.86
2023-04-10T22:07:39.821Z,13.88
2023-04-10T22:10:10.934Z,13.88
2023-04-10T22:12:41.381Z,13.84
2023-04-10T22:15:21.116Z,13.82
2023-04-10T22:17:50.608Z,13.80
2023-04-10T22:20:19.709Z,13.80
2023-04-10T22:23:19.682Z,13.76
2023-04-10T22:25:47.189Z,13.75
2023-04-10T22:28:16.948Z,13.75
2023-04-10T22:30:54.985Z,13.75
2023-04-10T22:33:24.357Z,13.74
2023-04-10T22:35:53.700Z,13.70
2023-04-10T22:38:22.782Z,13.69
2023-04-10T22:40:55.425Z,13.70
2023-04-10T22:43:24.939Z,13.72
2023-04-10T22:45:54.802Z,13.71
2023-04-10T22:48:24.472Z,13.72
2023-04-10T22:50:53.815Z,13.73
2023-04-10T22:53:23.158Z,13.73
2023-04-10T22:55:52.320Z,13.73
2023-04-10T22:58:21.391Z,13.74
2023-04-10T23:00:50.644Z,13.73
2023-04-10T23:03:19.711Z,13.76
2023-04-10T23:05:48.948Z,13.77
2023-04-10T23:08:18.349Z,13.75
2023-04-10T23:10:47.773Z,13.74
2023-04-10T23:13:17.396Z,13.70
2023-04-10T23:15:50.315Z,13.63
2023-04-10T23:18:19.966Z,13.57
2023-04-10T23:20:49.982Z,13.52
2023-04-10T23:23:20.718Z,13.51
2023-04-10T23:25:58.071Z,13.50
2023-04-10T23:28:28.468Z,13.47
2023-04-10T23:30:57.845Z,13.41
2023-04-10T23:33:27.623Z,13.34
2023-04-10T23:35:57.027Z,13.30
2023-04-10T23:38:26.315Z,13.22
2023-04-10T23:40:56.992Z,13.21
2023-04-10T23:43:27.155Z,13.23
2023-04-10T23:45:56.338Z,13.27
2023-04-10T23:48:25.761Z,13.28
2023-04-10T23:51:04.596Z,13.26
2023-04-10T23:53:34.042Z,13.29
2023-04-10T23:56:03.330Z,13.26
2023-04-10T23:58:32.793Z,13.22
